Terminal Aerodrome Forecast
Issued by NWS

Home | Current Version | Previous Version | Text Only | Print | Product List | Glossary On
Versions: 1 2 3 4 5 6 7 8 9 10 11 12 13
000
FTUS46 KHNX 250520
TAFMER
TAF
KMER 250520Z 2506/2606 25004KT P6SM SKC
     FM251500 14011KT P6SM SCT050 BKN100
     FM251800 16014G21KT P6SM BKN250
     FM252200 27010KT P6SM SCT250=

USA.gov is the U.S. government's official web portal to all federal, state and local government web resources and services.